Time;durP1;ratioP1;P1;durP2;ratioP2;P2;SDS_P1;SDS_P2;PMS_P1;PMS_P2;Temp;Humidity;BMP_temperature;BMP_pressure;BME280_temperature;BME280_humidity;BME280_pressure;Samples;Min_cycle;Max_cycle;Signal;HPM_P1;HPM_P2
2022/03/05 00:00:48;;;;;;;36.42;22.77;;;;;;;-144.47;100.00;61586.06;5045081;28;20124;-80
2022/03/05 00:03:14;;;;;;;37.33;23.58;;;;;;;-144.47;100.00;61586.06;5044308;28;20880;-81
2022/03/05 00:05:40;;;;;;;35.83;23.25;;;;;;;-144.47;100.00;61586.06;5045608;28;20025;-80
2022/03/05 00:08:06;;;;;;;41.55;23.45;;;;;;;-144.47;100.00;61586.06;5045099;28;20032;-79
2022/03/05 00:10:32;;;;;;;37.17;22.33;;;;;;;-144.47;100.00;61586.06;5042806;28;20029;-79
2022/03/05 00:12:57;;;;;;;35.10;22.48;;;;;;;-144.47;100.00;61586.06;5045263;28;20476;-79
2022/03/05 00:15:24;;;;;;;36.90;23.52;;;;;;;-144.47;100.00;61586.06;5042221;28;20358;-78
2022/03/05 00:17:51;;;;;;;37.30;23.25;;;;;;;-144.47;100.00;61586.06;5042690;28;20033;-78
2022/03/05 00:20:18;;;;;;;40.63;23.23;;;;;;;-144.47;100.00;61586.06;5051898;28;20041;-78
2022/03/05 00:22:46;;;;;;;43.20;24.35;;;;;;;-144.47;100.00;61586.06;5048714;28;20048;-79
2022/03/05 00:25:12;;;;;;;40.25;24.08;;;;;;;-144.47;100.00;61586.06;5043289;28;20052;-79
2022/03/05 00:27:38;;;;;;;41.20;24.23;;;;;;;-144.47;100.00;61586.06;5043488;28;20035;-79
2022/03/05 00:30:04;;;;;;;37.80;23.88;;;;;;;-144.47;100.00;61586.06;5049068;28;20364;-79
2022/03/05 00:32:29;;;;;;;35.95;23.70;;;;;;;-144.47;100.00;61586.06;5047721;28;20389;-78
2022/03/05 00:34:55;;;;;;;39.58;23.48;;;;;;;-144.47;100.00;61586.06;5047880;28;20041;-79
2022/03/05 00:37:20;;;;;;;39.95;23.70;;;;;;;-144.47;100.00;61586.06;5047224;28;20037;-79
2022/03/05 00:39:46;;;;;;;35.05;23.45;;;;;;;-144.47;100.00;61586.06;5045419;28;20083;-79
2022/03/05 00:42:11;;;;;;;38.78;23.77;;;;;;;-144.47;100.00;61586.06;5045562;28;20102;-79
2022/03/05 00:44:37;;;;;;;38.47;23.42;;;;;;;-144.47;100.00;61586.06;5044382;28;20038;-80
2022/03/05 00:47:03;;;;;;;41.50;23.77;;;;;;;-144.47;100.00;61586.06;5047336;28;20085;-79
2022/03/05 00:49:28;;;;;;;35.90;22.27;;;;;;;-144.47;100.00;61586.06;5071371;28;20032;-79
2022/03/05 00:51:54;;;;;;;36.08;22.77;;;;;;;-144.47;100.00;61586.06;5053250;28;20041;-77
2022/03/05 00:54:20;;;;;;;33.83;21.77;;;;;;;-144.47;100.00;61586.06;5048999;28;20057;-78
2022/03/05 00:56:46;;;;;;;34.83;21.88;;;;;;;-144.47;100.00;61586.06;5045330;28;20044;-79
2022/03/05 00:59:12;;;;;;;35.20;23.25;;;;;;;-144.47;100.00;61586.06;5047117;28;20132;-78
2022/03/05 01:01:39;;;;;;;35.45;21.30;;;;;;;-144.47;100.00;61586.06;5043474;28;20064;-77
2022/03/05 01:04:05;;;;;;;39.35;23.38;;;;;;;-144.47;100.00;61586.06;5042523;28;20038;-80
2022/03/05 01:06:31;;;;;;;35.45;22.10;;;;;;;-144.47;100.00;61586.06;5051815;28;20033;-79
2022/03/05 01:09:01;;;;;;;33.67;22.02;;;;;;;-144.47;100.00;61586.06;5038185;28;20521;-79
2022/03/05 01:11:27;;;;;;;35.40;21.83;;;;;;;-144.47;100.00;61586.06;5041171;28;20029;-80
2022/03/05 01:13:52;;;;;;;35.15;21.08;;;;;;;-144.47;100.00;61586.06;5046086;28;20033;-78
2022/03/05 01:16:18;;;;;;;37.03;21.80;;;;;;;-144.47;100.00;61586.06;5043360;28;20492;-79
2022/03/05 01:18:43;;;;;;;30.50;20.40;;;;;;;-144.47;100.00;61586.06;5044549;28;20040;-80
2022/03/05 01:21:10;;;;;;;38.97;21.85;;;;;;;-144.47;100.00;61586.06;5044525;28;20463;-79
2022/03/05 01:23:36;;;;;;;37.33;21.23;;;;;;;-144.47;100.00;61586.06;5044220;28;20032;-79
2022/03/05 01:26:02;;;;;;;33.30;20.52;;;;;;;-144.47;100.00;61586.06;5039460;28;20037;-81
2022/03/05 01:28:28;;;;;;;34.53;20.15;;;;;;;-144.47;100.00;61586.06;5059554;28;20315;-80
2022/03/05 01:30:54;;;;;;;33.53;20.08;;;;;;;-144.47;100.00;61586.06;5044189;28;20029;-78
2022/03/05 01:33:20;;;;;;;34.65;20.48;;;;;;;-144.47;100.00;61586.06;5041602;28;20040;-79
2022/03/05 01:35:48;;;;;;;33.92;20.52;;;;;;;-144.47;100.00;61586.06;5044995;28;20021;-79
2022/03/05 01:38:14;;;;;;;31.17;19.17;;;;;;;-144.47;100.00;61586.06;5042569;28;20040;-78
2022/03/05 01:40:40;;;;;;;29.10;18.65;;;;;;;-144.47;100.00;61586.06;5041998;28;20044;-79
2022/03/05 01:43:05;;;;;;;32.35;19.75;;;;;;;-144.47;100.00;61586.06;5038674;28;20116;-78
2022/03/05 01:45:32;;;;;;;33.47;19.20;;;;;;;-144.47;100.00;61586.06;5040372;28;20385;-80
2022/03/05 01:47:58;;;;;;;28.92;18.52;;;;;;;-144.47;100.00;61586.06;5043391;28;20033;-79
2022/03/05 01:50:24;;;;;;;32.33;18.30;;;;;;;-144.47;100.00;61586.06;5040291;28;20052;-79
2022/03/05 01:52:50;;;;;;;31.52;18.52;;;;;;;-144.47;100.00;61586.06;5036094;28;20037;-80
2022/03/05 01:55:16;;;;;;;29.58;19.30;;;;;;;-144.47;100.00;61586.06;5038806;28;20119;-79
2022/03/05 01:57:42;;;;;;;29.77;18.42;;;;;;;-144.47;100.00;61586.06;5060055;28;20040;-80
2022/03/05 02:00:11;;;;;;;32.92;19.75;;;;;;;-144.47;100.00;61586.06;5052802;28;20558;-79
2022/03/05 02:02:41;;;;;;;29.40;19.52;;;;;;;-144.47;100.00;61586.06;5056339;28;20028;-80
2022/03/05 02:05:07;;;;;;;30.42;19.30;;;;;;;-144.47;100.00;61586.06;5063172;28;20103;-79
2022/03/05 02:07:33;;;;;;;37.33;19.75;;;;;;;-144.47;100.00;61586.06;5041466;28;20088;-79
2022/03/05 02:09:58;;;;;;;28.42;19.10;;;;;;;-144.47;100.00;61586.06;5039467;28;20045;-80
2022/03/05 02:12:31;;;;;;;27.83;18.77;;;;;;;-144.47;100.00;61586.06;5047843;28;20036;-79
2022/03/05 02:14:58;;;;;;;32.92;19.50;;;;;;;-144.47;100.00;61586.06;5047954;28;20021;-79
2022/03/05 02:17:27;;;;;;;28.73;19.17;;;;;;;-144.47;100.00;61586.06;5039594;28;20117;-79
2022/03/05 02:19:54;;;;;;;33.22;18.77;;;;;;;-144.47;100.00;61586.06;5055429;28;20372;-80
2022/03/05 02:22:19;;;;;;;27.70;17.73;;;;;;;-144.47;100.00;61586.06;5041837;28;20040;-80
2022/03/05 02:24:47;;;;;;;27.83;17.83;;;;;;;-144.47;100.00;61586.06;5041637;28;20447;-79
2022/03/05 02:27:13;;;;;;;27.50;17.83;;;;;;;-144.47;100.00;61586.06;5041195;28;20033;-78
2022/03/05 02:29:39;;;;;;;28.50;18.08;;;;;;;-144.47;100.00;61586.06;5041763;28;20044;-79
2022/03/05 02:32:05;;;;;;;27.20;16.83;;;;;;;-144.47;100.00;61586.06;5039976;28;20470;-78
2022/03/05 02:34:31;;;;;;;27.40;16.55;;;;;;;-144.47;100.00;61586.06;5065093;28;20486;-77
2022/03/05 02:36:57;;;;;;;29.73;17.30;;;;;;;-144.47;100.00;61586.06;5049660;28;20040;-78
2022/03/05 02:39:26;;;;;;;26.02;18.15;;;;;;;-144.47;100.00;61586.06;5047207;28;20041;-78
2022/03/05 02:41:55;;;;;;;29.98;17.98;;;;;;;-144.47;100.00;61586.06;5039866;28;20040;-78
2022/03/05 02:44:21;;;;;;;25.98;16.70;;;;;;;-144.47;100.00;61586.06;5039505;28;20389;-80
2022/03/05 02:46:49;;;;;;;25.23;16.38;;;;;;;-144.47;100.00;61586.06;5039647;28;20167;-79
2022/03/05 02:49:15;;;;;;;29.75;17.33;;;;;;;-144.47;100.00;61586.06;5040088;28;20120;-80
2022/03/05 02:51:40;;;;;;;28.75;16.80;;;;;;;-144.47;100.00;61586.06;5056443;28;20483;-78
2022/03/05 02:54:06;;;;;;;24.83;16.38;;;;;;;-144.47;100.00;61586.06;5039513;28;20116;-80
2022/03/05 02:56:31;;;;;;;25.85;16.88;;;;;;;-144.47;100.00;61586.06;5041770;28;20512;-80
2022/03/05 02:58:57;;;;;;;25.45;17.35;;;;;;;-144.47;100.00;61586.06;5038211;28;20041;-79
2022/03/05 03:01:24;;;;;;;26.02;16.55;;;;;;;-144.47;100.00;61586.06;5042121;28;20112;-82
2022/03/05 03:03:50;;;;;;;26.75;16.38;;;;;;;-144.47;100.00;61586.06;5039850;28;20032;-81
2022/03/05 03:06:15;;;;;;;29.70;17.05;;;;;;;-144.47;100.00;61586.06;5043211;28;20026;-78
2022/03/05 03:08:40;;;;;;;26.52;17.02;;;;;;;-144.47;100.00;61586.06;5041281;28;20385;-80
2022/03/05 03:11:06;;;;;;;26.58;16.20;;;;;;;-144.47;100.00;61586.06;5040482;28;20025;-81
2022/03/05 03:13:32;;;;;;;25.77;16.77;;;;;;;-144.47;100.00;61586.06;5037588;28;20103;-80
2022/03/05 03:15:57;;;;;;;24.13;16.20;;;;;;;-144.47;100.00;61586.06;5042780;28;20039;-78
2022/03/05 03:18:23;;;;;;;22.95;15.82;;;;;;;-144.47;100.00;61586.06;5039515;28;20104;-79
2022/03/05 03:20:48;;;;;;;24.98;15.35;;;;;;;-144.47;100.00;61586.06;5040711;28;20037;-79
2022/03/05 03:23:13;;;;;;;27.88;17.02;;;;;;;-144.47;100.00;61586.06;5039134;28;20041;-79
2022/03/05 03:25:39;;;;;;;24.40;16.00;;;;;;;-144.47;100.00;61586.06;5057042;28;20057;-80
2022/03/05 03:28:06;;;;;;;25.92;17.25;;;;;;;-144.47;100.00;61586.06;5039787;28;20461;-79
2022/03/05 03:30:32;;;;;;;27.30;17.10;;;;;;;-144.47;100.00;61586.06;5061406;28;20360;-79
2022/03/05 03:32:57;;;;;;;25.30;16.83;;;;;;;-144.47;100.00;61586.06;5047280;28;20025;-79
2022/03/05 03:35:23;;;;;;;28.20;17.45;;;;;;;-144.47;100.00;61586.06;5047571;28;20033;-78
2022/03/05 03:37:49;;;;;;;26.17;16.98;;;;;;;-144.47;100.00;61586.06;5056506;28;20033;-80
2022/03/05 03:40:17;;;;;;;24.95;17.17;;;;;;;-144.47;100.00;61586.06;5048266;28;20493;-80
2022/03/05 03:42:44;;;;;;;26.17;15.50;;;;;;;-144.47;100.00;61586.06;5045738;28;20083;-79
2022/03/05 03:45:10;;;;;;;28.48;16.73;;;;;;;-144.47;100.00;61586.06;5042242;28;20086;-79
2022/03/05 03:47:37;;;;;;;27.75;17.67;;;;;;;-144.47;100.00;61586.06;5042778;28;20032;-80
2022/03/05 03:50:05;;;;;;;25.33;16.70;;;;;;;-144.47;100.00;61586.06;5045136;28;20033;-80
2022/03/05 03:52:30;;;;;;;29.08;16.95;;;;;;;-144.47;100.00;61586.06;5043342;28;20029;-78
2022/03/05 03:54:56;;;;;;;26.92;17.13;;;;;;;-144.47;100.00;61586.06;5045250;28;20476;-79
2022/03/05 03:57:21;;;;;;;26.70;17.02;;;;;;;-144.47;100.00;61586.06;5042961;28;20041;-81
2022/03/05 03:59:47;;;;;;;27.52;16.73;;;;;;;-144.47;100.00;61586.06;5044372;28;20033;-80
2022/03/05 04:02:14;;;;;;;27.20;16.92;;;;;;;-144.47;100.00;61586.06;5041383;28;20045;-79
2022/03/05 04:04:39;;;;;;;29.90;17.75;;;;;;;-144.47;100.00;61586.06;5060002;28;20051;-79
2022/03/05 04:09:49;;;;;;;28.67;17.50;;;;;;;-144.47;100.00;61586.06;5044551;28;20037;-80
2022/03/05 04:12:14;;;;;;;28.10;17.20;;;;;;;-144.47;100.00;61586.06;5043268;28;20392;-79
2022/03/05 04:14:41;;;;;;;25.40;16.52;;;;;;;-144.47;100.00;61586.06;5041887;28;20175;-79
2022/03/05 04:17:06;;;;;;;25.60;16.10;;;;;;;-144.47;100.00;61586.06;5060002;28;20064;-78
2022/03/05 04:19:33;;;;;;;26.48;17.25;;;;;;;-144.47;100.00;61586.06;5041835;28;20053;-80
2022/03/05 04:21:58;;;;;;;32.38;17.05;;;;;;;-144.47;100.00;61586.06;5041448;28;20041;-79
2022/03/05 04:24:24;;;;;;;25.73;16.70;;;;;;;-144.47;100.00;61586.06;5044984;28;20488;-80
2022/03/05 04:26:49;;;;;;;29.05;17.73;;;;;;;-144.47;100.00;61586.06;5041468;28;20167;-78
2022/03/05 04:29:16;;;;;;;28.38;15.80;;;;;;;-144.47;100.00;61586.06;5042785;28;20064;-79
2022/03/05 04:31:42;;;;;;;28.48;16.65;;;;;;;-144.47;100.00;61586.06;5043129;28;20069;-79
2022/03/05 04:34:07;;;;;;;28.98;17.27;;;;;;;-144.47;100.00;61586.06;5060396;28;20119;-77
2022/03/05 04:36:32;;;;;;;23.45;16.40;;;;;;;-144.47;100.00;61586.06;5045136;28;20037;-80
2022/03/05 04:38:58;;;;;;;27.50;17.17;;;;;;;-144.47;100.00;61586.06;5044838;28;20099;-78
2022/03/05 04:41:23;;;;;;;28.83;17.10;;;;;;;-144.47;100.00;61586.06;5041989;28;20544;-79
2022/03/05 04:43:49;;;;;;;27.33;16.92;;;;;;;-144.47;100.00;61586.06;5042630;28;20120;-79
2022/03/05 04:46:15;;;;;;;29.88;18.50;;;;;;;-144.47;100.00;61586.06;5043429;28;20055;-79
2022/03/05 04:48:41;;;;;;;28.23;17.17;;;;;;;-144.47;100.00;61586.06;5043349;28;20044;-79
2022/03/05 04:51:06;;;;;;;25.48;16.55;;;;;;;-144.47;100.00;61586.06;5044490;28;20025;-79
2022/03/05 04:53:32;;;;;;;23.73;16.80;;;;;;;-144.47;100.00;61586.06;5048368;28;20117;-79
2022/03/05 04:55:57;;;;;;;27.70;17.38;;;;;;;-144.47;100.00;61586.06;5050862;28;20504;-79
2022/03/05 04:58:23;;;;;;;26.52;17.02;;;;;;;-144.47;100.00;61586.06;5045721;28;20100;-78
2022/03/05 05:00:50;;;;;;;25.55;15.93;;;;;;;-144.47;100.00;61586.06;5043700;28;20100;-79
2022/03/05 05:03:16;;;;;;;26.55;16.67;;;;;;;-144.47;100.00;61586.06;5057561;28;20063;-79
2022/03/05 05:05:42;;;;;;;27.77;17.33;;;;;;;-144.47;100.00;61586.06;5045114;28;20095;-79
2022/03/05 05:08:09;;;;;;;30.90;17.10;;;;;;;-144.47;100.00;61586.06;5043014;28;20045;-79
2022/03/05 05:10:35;;;;;;;24.55;17.02;;;;;;;-144.47;100.00;61586.06;5044550;28;20038;-81
2022/03/05 05:13:00;;;;;;;28.98;16.92;;;;;;;-144.47;100.00;61586.06;5040707;28;20060;-78
2022/03/05 05:15:26;;;;;;;26.50;16.40;;;;;;;-144.47;100.00;61586.06;5044432;28;20044;-78
2022/03/05 05:17:51;;;;;;;24.60;16.73;;;;;;;-144.47;100.00;61586.06;5041845;28;21478;-80
2022/03/05 05:20:17;;;;;;;25.73;16.67;;;;;;;-144.47;100.00;61586.06;5040720;28;20033;-79
2022/03/05 05:22:43;;;;;;;27.77;15.02;;;;;;;-144.47;100.00;61586.06;5042687;28;20112;-79
2022/03/05 05:25:08;;;;;;;23.40;15.35;;;;;;;-144.47;100.00;61586.06;5058659;28;20095;-78
2022/03/05 05:27:36;;;;;;;24.83;16.05;;;;;;;-144.47;100.00;61586.06;5041603;28;20041;-80
2022/03/05 05:30:01;;;;;;;24.08;15.90;;;;;;;-144.47;100.00;61586.06;5043964;28;20060;-79
2022/03/05 05:32:27;;;;;;;26.67;15.98;;;;;;;-144.47;100.00;61586.06;5043631;28;20484;-77
2022/03/05 05:34:53;;;;;;;27.38;15.52;;;;;;;-144.47;100.00;61586.06;5041769;28;20025;-79
2022/03/05 05:37:19;;;;;;;24.52;15.80;;;;;;;-144.47;100.00;61586.06;5041938;28;20044;-79
2022/03/05 05:39:44;;;;;;;23.00;15.70;;;;;;;-144.47;100.00;61586.06;5038373;28;20068;-80
2022/03/05 05:42:10;;;;;;;25.90;16.00;;;;;;;-144.47;100.00;61586.06;5037945;28;20042;-80
2022/03/05 05:44:36;;;;;;;22.65;15.98;;;;;;;-144.47;100.00;61586.06;5044414;28;20133;-78
2022/03/05 05:47:01;;;;;;;25.08;16.38;;;;;;;-144.47;100.00;61586.06;5049236;28;20037;-79
2022/03/05 05:49:27;;;;;;;25.95;16.60;;;;;;;-144.47;100.00;61586.06;5048865;28;20033;-78
2022/03/05 05:51:52;;;;;;;21.48;15.38;;;;;;;-144.47;100.00;61586.06;5041373;28;20037;-78
2022/03/05 05:54:18;;;;;;;20.83;14.45;;;;;;;-144.47;100.00;61586.06;5040549;28;20040;-79
2022/03/05 05:56:43;;;;;;;23.80;15.65;;;;;;;-144.47;100.00;61586.06;5040968;28;20033;-78
2022/03/05 05:59:09;;;;;;;24.17;15.75;;;;;;;-144.47;100.00;61586.06;5044221;28;20480;-79
2022/03/05 06:01:35;;;;;;;23.77;16.15;;;;;;;-144.47;100.00;61586.06;5041451;28;20035;-78
2022/03/05 06:04:00;;;;;;;26.15;16.48;;;;;;;-144.47;100.00;61586.06;5044408;28;20105;-79
2022/03/05 06:06:26;;;;;;;24.10;17.05;;;;;;;-144.47;100.00;61586.06;5033863;28;20477;-79
2022/03/05 06:08:51;;;;;;;24.52;17.73;;;;;;;-144.47;100.00;61586.06;5044248;28;20108;-79
2022/03/05 06:11:17;;;;;;;26.00;18.15;;;;;;;-144.47;100.00;61586.06;5056238;28;20040;-80
2022/03/05 06:13:43;;;;;;;28.40;18.17;;;;;;;-144.47;100.00;61586.06;5062237;28;20016;-79
2022/03/05 06:16:12;;;;;;;26.38;17.67;;;;;;;-144.47;100.00;61586.06;5058001;28;20110;-79
2022/03/05 06:18:37;;;;;;;31.33;18.17;;;;;;;-144.47;100.00;61586.06;5051902;28;20045;-80
2022/03/05 06:21:05;;;;;;;25.05;16.65;;;;;;;-144.47;100.00;61586.06;5052633;28;20048;-78
2022/03/05 06:23:31;;;;;;;29.83;17.70;;;;;;;-144.47;100.00;61586.06;5056052;28;20054;-79
2022/03/05 06:25:57;;;;;;;26.92;17.50;;;;;;;-144.47;100.00;61586.06;5059555;28;20422;-79
2022/03/05 06:28:22;;;;;;;23.88;17.33;;;;;;;-144.47;100.00;61586.06;5054964;28;20111;-80
2022/03/05 06:30:48;;;;;;;26.35;18.17;;;;;;;-144.47;100.00;61586.06;5056288;28;20151;-79
2022/03/05 06:33:14;;;;;;;29.13;19.40;;;;;;;-144.47;100.00;61586.06;5053448;28;20017;-78
2022/03/05 06:35:39;;;;;;;30.08;19.45;;;;;;;-144.47;100.00;61586.06;5056662;28;20106;-79
2022/03/05 06:38:05;;;;;;;30.17;19.50;;;;;;;-144.47;100.00;61586.06;5045035;28;20034;-77
2022/03/05 06:40:31;;;;;;;28.48;18.17;;;;;;;-144.47;100.00;61586.06;5046767;28;20116;-78
2022/03/05 06:42:56;;;;;;;31.63;20.40;;;;;;;-144.47;100.00;61586.06;5045784;28;20400;-80
2022/03/05 06:45:23;;;;;;;30.60;19.40;;;;;;;-144.47;100.00;61586.06;5043995;28;20040;-79
2022/03/05 06:47:48;;;;;;;29.50;20.17;;;;;;;-144.47;100.00;61586.06;5041581;28;20036;-78
2022/03/05 06:50:14;;;;;;;33.28;20.95;;;;;;;-144.47;100.00;61586.06;5044208;28;20049;-78
2022/03/05 06:52:40;;;;;;;28.20;19.42;;;;;;;-144.47;100.00;61586.06;5043456;28;20033;-79
2022/03/05 06:55:06;;;;;;;30.40;21.08;;;;;;;-144.47;100.00;61586.06;5040314;28;20039;-80
2022/03/05 06:57:32;;;;;;;33.78;20.33;;;;;;;-144.47;100.00;61586.06;5044431;28;20036;-79
2022/03/05 06:59:57;;;;;;;34.22;20.58;;;;;;;-144.47;100.00;61586.06;5039375;28;20103;-79
2022/03/05 07:02:23;;;;;;;33.90;21.75;;;;;;;-144.47;100.00;61586.06;5043032;28;20025;-80
2022/03/05 07:04:49;;;;;;;32.53;21.10;;;;;;;-144.47;100.00;61586.06;5042720;28;20349;-80
2022/03/05 07:07:15;;;;;;;29.63;21.63;;;;;;;-144.47;100.00;61586.06;5046703;28;20069;-78
2022/03/05 07:09:41;;;;;;;30.67;20.52;;;;;;;-144.47;100.00;61586.06;5052557;28;20061;-81
2022/03/05 07:12:09;;;;;;;28.13;19.98;;;;;;;-144.47;100.00;61586.06;5047040;28;20037;-80
2022/03/05 07:14:35;;;;;;;30.50;21.50;;;;;;;-144.47;100.00;61586.06;5047077;28;20065;-80
2022/03/05 07:17:01;;;;;;;34.05;21.13;;;;;;;-144.47;100.00;61586.06;5047113;28;20183;-79
2022/03/05 07:19:26;;;;;;;35.05;21.20;;;;;;;-144.47;100.00;61586.06;5044222;28;20093;-79
2022/03/05 07:21:52;;;;;;;33.63;21.60;;;;;;;-144.47;100.00;61586.06;5047692;28;20079;-80
2022/03/05 07:24:18;;;;;;;32.03;21.52;;;;;;;-144.47;100.00;61586.06;5044100;28;20033;-78
2022/03/05 07:26:43;;;;;;;32.20;21.00;;;;;;;-144.47;100.00;61586.06;5044068;28;20025;-77
2022/03/05 07:29:09;;;;;;;30.88;21.20;;;;;;;-144.47;100.00;61586.06;5041356;28;20070;-77
2022/03/05 07:31:34;;;;;;;31.83;20.80;;;;;;;-144.47;100.00;61586.06;5045034;28;20029;-79
2022/03/05 07:34:00;;;;;;;33.40;21.50;;;;;;;-144.47;100.00;61586.06;5043511;28;20030;-79
2022/03/05 07:36:25;;;;;;;33.35;22.30;;;;;;;-144.47;100.00;61586.06;5044224;28;20047;-78
2022/03/05 07:38:51;;;;;;;33.78;21.20;;;;;;;-144.47;100.00;61586.06;5043597;28;20030;-79
2022/03/05 07:41:18;;;;;;;31.73;20.73;;;;;;;-144.47;100.00;61586.06;5040430;28;20030;-78
2022/03/05 07:43:44;;;;;;;32.92;21.15;;;;;;;-144.47;100.00;61586.06;5044503;28;20457;-76
2022/03/05 07:46:10;;;;;;;34.60;21.63;;;;;;;-144.47;100.00;61586.06;5042921;28;20040;-76
2022/03/05 07:48:35;;;;;;;30.55;22.23;;;;;;;-144.47;100.00;61586.06;5043546;28;20037;-77
2022/03/05 07:51:02;;;;;;;32.85;22.52;;;;;;;-144.47;100.00;61586.06;5043220;28;20394;-79
2022/03/05 07:53:28;;;;;;;31.73;22.23;;;;;;;-144.47;100.00;61586.06;5044841;28;20041;-75
2022/03/05 07:55:55;;;;;;;37.20;23.73;;;;;;;-144.47;100.00;61586.06;5039602;28;20111;-79
2022/03/05 07:58:20;;;;;;;34.72;22.52;;;;;;;-144.47;100.00;61586.06;4349000;28;10000709;-78
2022/03/05 08:00:46;;;;;;;32.35;21.77;;;;;;;-144.47;100.00;61586.06;5043007;28;20032;-78
2022/03/05 08:03:12;;;;;;;29.38;20.65;;;;;;;-144.47;100.00;61586.06;5038826;28;20104;-77
2022/03/05 08:05:37;;;;;;;34.05;22.27;;;;;;;-144.47;100.00;61586.06;5039625;28;20388;-78
2022/03/05 08:08:03;;;;;;;33.53;22.45;;;;;;;-144.47;100.00;61586.06;5040543;28;20481;-77
2022/03/05 08:10:29;;;;;;;35.78;23.10;;;;;;;-144.47;100.00;61586.06;5039303;28;20041;-77
2022/03/05 08:12:55;;;;;;;33.33;22.90;;;;;;;-144.47;100.00;61586.06;5038257;28;20112;-78
2022/03/05 08:15:20;;;;;;;34.78;22.35;;;;;;;-144.47;100.00;61586.06;5038969;28;20029;-78
2022/03/05 08:17:53;;;;;;;37.72;23.50;;;;;;;-144.47;100.00;61586.06;5037807;28;20072;-79
2022/03/05 08:20:19;;;;;;;34.85;22.42;;;;;;;-144.47;100.00;61586.06;5041735;28;20120;-79
2022/03/05 08:22:44;;;;;;;33.95;22.15;;;;;;;-144.47;100.00;61586.06;5037974;28;20029;-77
2022/03/05 08:25:10;;;;;;;32.15;21.90;;;;;;;-144.47;100.00;61586.06;5038614;28;20036;-79
2022/03/05 08:27:36;;;;;;;31.52;20.83;;;;;;;-144.47;100.00;61586.06;5039110;28;20029;-74
2022/03/05 08:30:03;;;;;;;32.88;21.27;;;;;;;-144.47;100.00;61586.06;5036618;28;20045;-78
2022/03/05 08:32:30;;;;;;;33.42;21.33;;;;;;;-144.47;100.00;61586.06;5039352;28;20166;-83
2022/03/05 08:34:55;;;;;;;37.97;21.80;;;;;;;-144.47;100.00;61586.06;5038890;28;20026;-79
2022/03/05 08:37:21;;;;;;;30.05;21.70;;;;;;;-144.47;100.00;61586.06;4344827;28;10000790;-77
2022/03/05 08:39:46;;;;;;;29.90;20.52;;;;;;;-144.47;100.00;61586.06;5039699;28;20187;-75
2022/03/05 08:42:12;;;;;;;29.40;21.00;;;;;;;-144.47;100.00;61586.06;5046603;28;20038;-76
2022/03/05 08:44:37;;;;;;;32.83;21.25;;;;;;;-144.47;100.00;61586.06;5042566;28;20022;-75
2022/03/05 08:47:04;;;;;;;32.92;20.08;;;;;;;-144.47;100.00;61586.06;5039413;28;20030;-76
2022/03/05 08:49:30;;;;;;;29.42;20.63;;;;;;;-144.47;100.00;61586.06;5038530;28;20077;-75
2022/03/05 08:51:57;;;;;;;27.92;19.60;;;;;;;-144.47;100.00;61586.06;5055689;28;20087;-75
2022/03/05 08:54:22;;;;;;;33.00;19.50;;;;;;;-144.47;100.00;61586.06;5041735;28;20100;-77
2022/03/05 08:56:49;;;;;;;27.27;19.55;;;;;;;-144.47;100.00;61586.06;5044416;28;20418;-77
2022/03/05 08:59:15;;;;;;;28.63;20.10;;;;;;;-144.47;100.00;61586.06;5039469;28;20041;-77
2022/03/05 09:01:41;;;;;;;33.70;20.25;;;;;;;-144.47;100.00;61586.06;5027577;28;20037;-76
2022/03/05 09:04:07;;;;;;;28.45;19.20;;;;;;;-144.47;100.00;61586.06;5040933;28;20044;-76
2022/03/05 09:06:32;;;;;;;29.92;19.95;;;;;;;-144.47;100.00;61586.06;5041709;28;20033;-74
2022/03/05 09:09:00;;;;;;;31.48;19.70;;;;;;;-144.47;100.00;61586.06;5039911;28;20079;-74
2022/03/05 09:11:27;;;;;;;28.95;19.30;;;;;;;-144.47;100.00;61586.06;5045366;28;20041;-76
2022/03/05 09:13:52;;;;;;;26.48;18.80;;;;;;;-144.47;100.00;61586.06;5043064;28;20033;-75
2022/03/05 09:16:18;;;;;;;27.30;19.77;;;;;;;-144.47;100.00;61586.06;5038518;28;20370;-76
2022/03/05 09:18:44;;;;;;;29.90;20.38;;;;;;;-144.47;100.00;61586.06;5044100;28;20263;-74
2022/03/05 09:21:11;;;;;;;35.78;20.10;;;;;;;-144.47;100.00;61586.06;5047326;28;20028;-76
2022/03/05 09:23:36;;;;;;;29.52;18.80;;;;;;;-144.47;100.00;61586.06;5046400;28;20026;-76
2022/03/05 09:26:02;;;;;;;29.00;19.17;;;;;;;-144.47;100.00;61586.06;5045418;28;20079;-75
2022/03/05 09:28:28;;;;;;;30.10;19.90;;;;;;;-144.47;100.00;61586.06;5040333;28;20030;-76
2022/03/05 09:30:53;;;;;;;31.33;19.85;;;;;;;-144.47;100.00;61586.06;5042602;28;20146;-75
2022/03/05 09:33:22;;;;;;;29.83;20.05;;;;;;;-144.47;100.00;61586.06;5040953;28;20048;-76
2022/03/05 09:35:49;;;;;;;34.83;20.23;;;;;;;-144.47;100.00;61586.06;5041976;28;20476;-76
2022/03/05 09:38:15;;;;;;;31.60;20.63;;;;;;;-144.47;100.00;61586.06;5041318;28;20742;-74
2022/03/05 09:40:41;;;;;;;29.52;19.45;;;;;;;-144.47;100.00;61586.06;5044161;28;20151;-74
2022/03/05 09:43:07;;;;;;;30.02;18.02;;;;;;;-144.47;100.00;61586.06;5039313;28;20032;-75
2022/03/05 09:45:34;;;;;;;27.25;18.23;;;;;;;-144.47;100.00;61586.06;5041041;28;20143;-74
2022/03/05 09:48:01;;;;;;;26.95;18.55;;;;;;;-144.47;100.00;61586.06;5039388;28;20029;-73
2022/03/05 09:50:28;;;;;;;27.30;18.40;;;;;;;-144.47;100.00;61586.06;5043250;28;20172;-76
2022/03/05 09:52:55;;;;;;;28.50;18.98;;;;;;;-144.47;100.00;61586.06;5039003;28;20041;-75
2022/03/05 09:55:21;;;;;;;26.15;18.52;;;;;;;-144.47;100.00;61586.06;5044062;28;20025;-76
2022/03/05 09:57:46;;;;;;;27.48;16.95;;;;;;;-144.47;100.00;61586.06;5041476;28;20045;-75
2022/03/05 10:00:12;;;;;;;26.70;16.67;;;;;;;-144.47;100.00;61586.06;5042159;28;20516;-76
2022/03/05 10:02:38;;;;;;;24.88;18.23;;;;;;;-144.47;100.00;61586.06;5040590;28;20052;-74
2022/03/05 10:05:24;;;;;;;30.20;16.05;;;;;;;-144.47;100.00;61586.06;5039488;28;20454;-75
2022/03/05 10:08:02;;;;;;;19.75;15.20;;;;;;;-144.47;100.00;61586.06;5040654;28;20033;-74
2022/03/05 10:10:28;;;;;;;26.10;16.50;;;;;;;-144.47;100.00;61586.06;5039197;28;20037;-72
2022/03/05 10:12:54;;;;;;;26.15;16.88;;;;;;;-144.47;100.00;61586.06;5042179;28;20037;-75
2022/03/05 10:15:21;;;;;;;22.48;16.65;;;;;;;-144.47;100.00;61586.06;5037996;28;20029;-75
2022/03/05 10:17:57;;;;;;;24.48;17.05;;;;;;;-144.47;100.00;61586.06;5040433;28;20048;-75
2022/03/05 10:20:31;;;;;;;27.40;18.30;;;;;;;-144.47;100.00;61586.06;5039142;28;20496;-76
2022/03/05 10:23:01;;;;;;;26.75;17.67;;;;;;;-144.47;100.00;61586.06;5039394;28;20033;-73
2022/03/05 10:25:44;;;;;;;26.45;16.95;;;;;;;-144.47;100.00;61586.06;5037010;28;20041;-76
2022/03/05 10:28:18;;;;;;;28.20;16.58;;;;;;;-144.47;100.00;61586.06;5037544;28;20040;-75
2022/03/05 10:30:45;;;;;;;26.50;17.40;;;;;;;-144.47;100.00;61586.06;5038177;28;20037;-76
2022/03/05 10:33:40;;;;;;;27.05;17.88;;;;;;;-144.47;100.00;61586.06;5040834;28;20481;-76
2022/03/05 10:36:16;;;;;;;24.48;18.02;;;;;;;-144.47;100.00;61586.06;5039540;28;20029;-78
2022/03/05 10:38:47;;;;;;;24.92;17.27;;;;;;;-144.47;100.00;61586.06;5041337;28;20041;-78
2022/03/05 10:41:17;;;;;;;25.33;17.50;;;;;;;-144.47;100.00;61586.06;5040080;28;20149;-77
2022/03/05 10:43:44;;;;;;;28.23;16.65;;;;;;;-144.47;100.00;61586.06;5040233;28;20048;-78
2022/03/05 10:46:09;;;;;;;22.58;16.17;;;;;;;-144.47;100.00;61586.06;5042846;28;20060;-78
2022/03/05 10:48:40;;;;;;;20.25;14.95;;;;;;;-144.47;100.00;61586.06;5036690;28;20460;-75
2022/03/05 10:51:12;;;;;;;20.77;15.00;;;;;;;-144.47;100.00;61586.06;5038981;28;20064;-75
2022/03/05 10:53:46;;;;;;;19.85;14.55;;;;;;;-144.47;100.00;61586.06;5037393;28;20056;-77